Terminal Aerodrome Forecast
Issued by NWS

Home | Current Version | Previous Version | Text Only | Print | Product List | Glossary On
Versions: 1 2 3 4 5 6 7 8 9 10 11 12 13 14 15 16 17 18 19 20
000
FTUS46 KOTX 250101 AAA
TAFPUW
TAF AMD
KPUW 250101Z 2501/2524 25011G16KT 6SM -RA BR SCT014 BKN020 OVC035
     FM250300 21009KT P6SM VCSH SCT025 OVC040
     FM250700 21005KT P6SM BKN040 OVC200
     FM251900 24013G20KT P6SM SCT060 BKN120=

USA.gov is the U.S. government's official web portal to all federal, state and local government web resources and services.